createdAt,value
2018-08-25T00:01:16.396Z,20.54
2018-08-25T00:03:44.887Z,20.54
2018-08-25T00:06:13.335Z,20.51
2018-08-25T00:08:41.813Z,20.48
2018-08-25T00:11:10.758Z,20.44
2018-08-25T00:13:39.393Z,20.39
2018-08-25T00:16:08.014Z,20.39
2018-08-25T00:18:36.563Z,20.39
2018-08-25T00:21:05.137Z,20.36
2018-08-25T00:23:33.648Z,20.34
2018-08-25T00:26:02.175Z,20.32
2018-08-25T00:28:30.638Z,20.29
2018-08-25T00:31:04.296Z,20.26
2018-08-25T00:33:32.762Z,20.25
2018-08-25T00:36:01.806Z,20.24
2018-08-25T00:38:30.318Z,20.25
2018-08-25T00:40:58.774Z,20.23
2018-08-25T00:43:27.261Z,20.22
2018-08-25T00:45:55.777Z,20.20
2018-08-25T00:48:24.329Z,20.15
2018-08-25T00:50:52.873Z,20.12
2018-08-25T00:53:21.352Z,20.09
2018-08-25T00:55:49.888Z,20.06
2018-08-25T00:58:18.444Z,20.03
2018-08-25T01:00:47.149Z,20.02
2018-08-25T01:03:15.582Z,20.03
2018-08-25T01:05:44.033Z,20.05
2018-08-25T01:08:12.519Z,20.06
2018-08-25T01:10:41.038Z,20.08
2018-08-25T01:13:09.856Z,20.04
2018-08-25T01:15:38.383Z,20.09
2018-08-25T01:18:07.045Z,20.09
2018-08-25T01:20:35.671Z,20.10
2018-08-25T01:23:04.200Z,20.10
2018-08-25T01:25:32.758Z,20.12
2018-08-25T01:28:01.315Z,20.03
2018-08-25T01:30:29.835Z,20.03
2018-08-25T01:32:58.332Z,19.96
2018-08-25T01:35:26.846Z,19.92
2018-08-25T01:37:55.333Z,19.83
2018-08-25T01:40:23.842Z,19.82
2018-08-25T01:42:52.318Z,19.84
2018-08-25T01:45:20.830Z,19.85
2018-08-25T01:47:49.372Z,19.83
2018-08-25T01:50:17.917Z,19.82
2018-08-25T01:52:46.439Z,19.82
2018-08-25T01:55:15.126Z,19.83
2018-08-25T01:57:43.648Z,19.82
2018-08-25T02:00:12.357Z,19.84
2018-08-25T02:02:40.895Z,19.83
2018-08-25T02:05:09.541Z,19.82
2018-08-25T02:07:38.047Z,19.79
2018-08-25T02:12:57.253Z,19.78
2018-08-25T02:15:25.846Z,19.72
2018-08-25T02:17:54.455Z,19.71
2018-08-25T02:20:23.091Z,19.73
2018-08-25T02:22:51.791Z,19.76
2018-08-25T02:25:20.283Z,19.79
2018-08-25T02:27:48.739Z,19.78
2018-08-25T02:30:17.336Z,19.79
2018-08-25T02:32:45.824Z,19.82
2018-08-25T02:35:14.455Z,19.83
2018-08-25T02:37:42.949Z,19.87
2018-08-25T02:40:11.805Z,19.87
2018-08-25T02:42:40.294Z,19.92
2018-08-25T02:45:08.804Z,19.88
2018-08-25T02:47:37.371Z,19.85
2018-08-25T02:50:05.820Z,19.85
2018-08-25T02:52:34.334Z,19.87
2018-08-25T02:55:02.886Z,19.85
2018-08-25T02:57:31.467Z,19.85
2018-08-25T03:00:00.000Z,19.89
2018-08-25T03:02:28.555Z,19.90
2018-08-25T03:04:57.068Z,19.92
2018-08-25T03:07:25.604Z,19.93
2018-08-25T03:09:54.121Z,19.87
2018-08-25T03:12:22.653Z,19.90
2018-08-25T03:14:51.178Z,19.89
2018-08-25T03:17:19.810Z,19.85
2018-08-25T03:19:48.338Z,19.88
2018-08-25T03:22:16.840Z,19.85
2018-08-25T03:24:45.279Z,19.79
2018-08-25T03:27:13.887Z,19.62
2018-08-25T03:29:42.384Z,19.51
2018-08-25T03:32:10.862Z,19.40
2018-08-25T03:34:39.358Z,19.27
2018-08-25T03:37:07.943Z,19.13
2018-08-25T03:39:36.478Z,19.02
2018-08-25T03:42:05.121Z,18.89
2018-08-25T03:44:33.600Z,18.88
2018-08-25T03:47:02.128Z,18.82
2018-08-25T03:49:30.681Z,18.80
2018-08-25T03:51:59.247Z,18.78
2018-08-25T03:54:27.781Z,18.71
2018-08-25T03:56:56.252Z,18.70
2018-08-25T03:59:24.731Z,18.65
2018-08-25T04:01:53.192Z,18.60
2018-08-25T04:04:21.730Z,18.53
2018-08-25T04:06:50.219Z,18.43
2018-08-25T04:09:18.768Z,18.33
2018-08-25T04:11:47.197Z,18.20
2018-08-25T04:14:15.676Z,18.14
2018-08-25T04:16:44.265Z,18.11
2018-08-25T04:19:21.331Z,18.10
2018-08-25T04:21:50.618Z,18.08
2018-08-25T04:24:19.052Z,18.09
2018-08-25T04:26:47.502Z,18.05
2018-08-25T04:29:15.966Z,18.00
2018-08-25T04:31:44.450Z,17.97
2018-08-25T04:34:13.036Z,17.93
2018-08-25T04:36:41.556Z,17.94
2018-08-25T04:39:11.523Z,17.95
2018-08-25T04:41:39.994Z,17.96
2018-08-25T04:44:08.852Z,17.95
2018-08-25T04:46:37.370Z,17.99
2018-08-25T04:49:06.144Z,18.02
2018-08-25T04:51:34.755Z,18.06
2018-08-25T04:54:03.502Z,18.11
2018-08-25T04:56:32.215Z,18.14
2018-08-25T04:59:00.710Z,18.16
2018-08-25T05:01:29.271Z,18.15
2018-08-25T05:03:57.841Z,18.14
2018-08-25T05:06:26.389Z,18.14
2018-08-25T05:08:54.937Z,18.14
2018-08-25T05:11:23.418Z,18.15
2018-08-25T05:13:52.021Z,18.15
2018-08-25T05:16:20.539Z,18.15
2018-08-25T05:18:49.012Z,18.13
2018-08-25T05:21:17.484Z,18.13
2018-08-25T05:23:46.015Z,18.14
2018-08-25T05:26:14.510Z,18.12
2018-08-25T05:28:43.046Z,18.09
2018-08-25T05:31:11.553Z,18.12
2018-08-25T05:33:40.059Z,18.13
2018-08-25T05:36:08.600Z,18.12
2018-08-25T05:38:37.999Z,18.07
2018-08-25T05:41:06.546Z,18.04
2018-08-25T05:43:35.157Z,17.97
2018-08-25T05:46:03.759Z,17.94
2018-08-25T05:48:32.667Z,17.96
2018-08-25T05:51:01.122Z,18.06
2018-08-25T05:53:29.686Z,18.12
2018-08-25T05:55:58.166Z,18.14
2018-08-25T05:58:26.704Z,18.25
2018-08-25T06:00:55.214Z,18.35
2018-08-25T06:03:23.695Z,18.47
2018-08-25T06:05:52.155Z,18.56
2018-08-25T06:08:20.659Z,18.58
2018-08-25T06:10:49.109Z,18.61
2018-08-25T06:13:17.631Z,18.60
2018-08-25T06:15:46.150Z,18.59
2018-08-25T06:18:14.827Z,18.64
2018-08-25T06:20:43.267Z,18.68
2018-08-25T06:23:11.795Z,18.65
2018-08-25T06:25:40.358Z,18.67
2018-08-25T06:28:08.973Z,18.83
2018-08-25T06:30:37.538Z,18.96
2018-08-25T06:33:06.418Z,19.03
2018-08-25T06:35:34.927Z,19.13
2018-08-25T06:38:03.689Z,19.26
2018-08-25T06:40:32.267Z,19.35
2018-08-25T06:43:00.745Z,19.38
2018-08-25T06:45:29.312Z,19.39
2018-08-25T06:47:57.964Z,19.39
2018-08-25T06:50:26.547Z,19.36
2018-08-25T06:52:55.108Z,19.36
2018-08-25T06:55:23.661Z,19.38
2018-08-25T06:57:52.195Z,19.39
2018-08-25T07:00:20.708Z,19.45
2018-08-25T07:02:49.173Z,19.57
2018-08-25T07:05:17.994Z,19.67
2018-08-25T07:07:46.475Z,19.89
2018-08-25T07:10:15.205Z,20.33
2018-08-25T07:12:43.748Z,20.57
2018-08-25T07:15:12.183Z,20.53
2018-08-25T07:17:40.714Z,20.43
2018-08-25T07:20:09.175Z,20.30
2018-08-25T07:22:37.638Z,20.26
2018-08-25T07:25:06.795Z,20.23
2018-08-25T07:27:35.263Z,20.20
2018-08-25T07:30:03.784Z,20.12
2018-08-25T07:32:32.302Z,20.04
2018-08-25T07:35:00.847Z,20.02
2018-08-25T07:37:29.350Z,20.14
2018-08-25T07:39:57.879Z,20.74
2018-08-25T07:42:26.429Z,21.49
2018-08-25T07:44:55.009Z,22.05
2018-08-25T07:47:23.516Z,22.31
2018-08-25T07:49:52.105Z,22.16
2018-08-25T07:52:20.525Z,21.86
2018-08-25T07:54:48.995Z,21.47
2018-08-25T07:57:17.549Z,21.42
2018-08-25T07:59:46.169Z,21.23
2018-08-25T08:02:14.733Z,21.02
2018-08-25T08:04:43.574Z,20.83
2018-08-25T08:07:11.995Z,20.78
2018-08-25T08:09:47.176Z,20.74
2018-08-25T08:12:15.829Z,18.53
2018-08-25T08:14:44.290Z,20.95
2018-08-25T08:17:12.804Z,20.99
2018-08-25T08:19:41.406Z,20.92
2018-08-25T08:22:09.970Z,20.92
2018-08-25T08:24:38.452Z,20.88
2018-08-25T08:27:07.142Z,20.83
2018-08-25T08:29:35.751Z,20.93
2018-08-25T08:32:04.241Z,21.05
2018-08-25T08:34:32.773Z,21.21
2018-08-25T08:37:01.280Z,21.47
2018-08-25T08:39:29.852Z,21.65
2018-08-25T08:41:58.301Z,21.73
2018-08-25T08:44:26.867Z,21.74
2018-08-25T08:46:55.433Z,21.80
2018-08-25T08:49:23.899Z,21.85
2018-08-25T08:51:52.320Z,21.96
2018-08-25T08:54:20.953Z,22.15
2018-08-25T08:56:49.434Z,22.83
2018-08-25T08:59:17.898Z,23.19
2018-08-25T09:01:46.904Z,23.15
2018-08-25T09:04:15.496Z,22.94
2018-08-25T09:06:43.979Z,22.67
2018-08-25T09:09:12.521Z,22.32
2018-08-25T09:11:41.451Z,22.07
2018-08-25T09:14:09.937Z,21.82
2018-08-25T09:16:38.449Z,21.78
2018-08-25T09:19:07.019Z,21.86
2018-08-25T09:21:35.537Z,22.12
2018-08-25T09:24:04.127Z,22.23
2018-08-25T09:26:32.648Z,22.69
2018-08-25T09:29:01.254Z,23.12
2018-08-25T09:31:29.823Z,23.35
2018-08-25T09:33:58.367Z,23.53
2018-08-25T09:36:27.043Z,23.05
2018-08-25T09:38:55.599Z,24.02
2018-08-25T09:41:24.090Z,23.76
2018-08-25T09:43:52.588Z,23.56
2018-08-25T09:46:21.080Z,23.64
2018-08-25T09:48:49.827Z,23.72
2018-08-25T09:51:18.291Z,23.85
2018-08-25T09:53:46.765Z,23.88
2018-08-25T09:56:16.541Z,23.83
2018-08-25T09:58:45.198Z,23.80
2018-08-25T10:01:19.111Z,23.74
2018-08-25T10:03:48.004Z,23.74
2018-08-25T10:06:16.589Z,23.88
2018-08-25T10:08:45.467Z,24.20
2018-08-25T10:11:14.053Z,25.14
2018-08-25T10:13:42.698Z,25.40
2018-08-25T10:16:11.391Z,25.26
2018-08-25T10:18:39.960Z,25.07
2018-08-25T10:21:08.799Z,24.75
2018-08-25T10:23:37.480Z,24.46
2018-08-25T10:26:06.173Z,24.17
2018-08-25T10:28:34.753Z,23.99
2018-08-25T10:31:03.236Z,23.84
2018-08-25T10:33:31.739Z,23.67
2018-08-25T10:36:00.294Z,23.64
2018-08-25T10:38:28.747Z,23.79
2018-08-25T10:40:57.314Z,24.08
2018-08-25T10:43:25.797Z,24.49
2018-08-25T10:45:54.318Z,24.98
2018-08-25T10:48:22.757Z,26.83
2018-08-25T10:50:51.331Z,29.70
2018-08-25T10:53:20.349Z,32.49
2018-08-25T10:55:48.872Z,33.73
2018-08-25T10:58:17.403Z,32.64
2018-08-25T11:00:46.067Z,31.24
2018-08-25T11:03:14.556Z,30.24
2018-08-25T11:05:43.159Z,30.03
2018-08-25T11:08:11.712Z,31.32
2018-08-25T11:10:40.684Z,31.02
2018-08-25T11:13:09.231Z,31.34
2018-08-25T11:15:37.791Z,32.31
2018-08-25T11:18:07.034Z,31.62
2018-08-25T11:20:35.633Z,30.93
2018-08-25T11:23:04.265Z,31.64
2018-08-25T11:25:32.787Z,33.33
2018-08-25T11:28:01.311Z,34.89
2018-08-25T11:30:29.830Z,36.60
2018-08-25T11:32:58.420Z,37.13
2018-08-25T11:35:26.957Z,36.16
2018-08-25T11:37:55.475Z,34.57
2018-08-25T11:40:24.010Z,34.57
2018-08-25T11:42:52.559Z,35.35
2018-08-25T11:45:21.095Z,34.75
2018-08-25T11:47:49.677Z,33.56
2018-08-25T11:50:18.239Z,32.81
2018-08-25T11:52:46.776Z,32.03
2018-08-25T11:55:15.391Z,31.17
2018-08-25T11:57:44.010Z,30.27
2018-08-25T12:00:12.519Z,29.31
2018-08-25T12:02:41.091Z,28.75
2018-08-25T12:05:09.630Z,28.50
2018-08-25T12:07:38.199Z,28.29
2018-08-25T12:10:06.843Z,28.05
2018-08-25T12:12:35.413Z,27.94
2018-08-25T12:15:03.992Z,27.86
2018-08-25T12:17:32.689Z,27.68
2018-08-25T12:20:01.232Z,27.42
2018-08-25T12:22:29.729Z,27.07
2018-08-25T12:24:58.272Z,26.68
2018-08-25T12:27:26.867Z,26.27
2018-08-25T12:29:55.469Z,26.14
2018-08-25T12:32:24.028Z,26.17
2018-08-25T12:34:52.527Z,26.32
2018-08-25T12:37:21.033Z,26.43
2018-08-25T12:39:49.496Z,26.41
2018-08-25T12:42:17.990Z,26.33
2018-08-25T12:44:46.435Z,26.13
2018-08-25T12:47:14.975Z,25.96
2018-08-25T12:49:43.495Z,25.71
2018-08-25T12:52:12.685Z,25.47
2018-08-25T12:54:41.428Z,25.38
2018-08-25T12:57:10.323Z,25.29
2018-08-25T12:59:47.170Z,25.23
2018-08-25T13:02:15.835Z,25.15
2018-08-25T13:04:44.374Z,25.05
2018-08-25T13:07:14.480Z,24.95
2018-08-25T13:09:43.912Z,24.82
2018-08-25T13:12:13.119Z,24.67
2018-08-25T13:14:41.731Z,24.53
2018-08-25T13:17:10.237Z,24.35
2018-08-25T13:19:38.881Z,24.10
2018-08-25T13:22:07.595Z,23.93
2018-08-25T13:24:36.135Z,23.70
2018-08-25T13:27:04.881Z,23.49
2018-08-25T13:29:33.475Z,23.38
2018-08-25T13:32:02.089Z,23.34
2018-08-25T13:34:31.252Z,23.48
2018-08-25T13:37:00.042Z,23.77
2018-08-25T13:39:29.610Z,24.08
2018-08-25T13:41:58.164Z,24.31
2018-08-25T13:44:26.687Z,24.45
2018-08-25T13:46:55.308Z,24.64
2018-08-25T13:49:23.851Z,24.80
2018-08-25T13:51:52.358Z,24.87
2018-08-25T13:54:22.383Z,24.89
2018-08-25T13:56:51.244Z,24.84
2018-08-25T13:59:20.823Z,24.66
2018-08-25T14:01:49.316Z,24.39
2018-08-25T14:04:17.916Z,24.27
2018-08-25T14:06:47.377Z,24.22
2018-08-25T14:09:15.937Z,24.18
2018-08-25T14:11:44.759Z,24.14
2018-08-25T14:14:13.368Z,24.03
2018-08-25T14:16:41.904Z,23.90
2018-08-25T14:19:10.583Z,23.93
2018-08-25T14:21:39.134Z,24.15
2018-08-25T14:24:07.740Z,24.39
2018-08-25T14:26:36.251Z,24.53
2018-08-25T14:29:04.912Z,24.54
2018-08-25T14:31:33.433Z,24.50
2018-08-25T14:34:01.901Z,24.50
2018-08-25T14:36:30.426Z,24.43
2018-08-25T14:38:58.906Z,24.34
2018-08-25T14:41:27.489Z,24.35
2018-08-25T14:43:56.024Z,24.37
2018-08-25T14:46:24.420Z,23.71
2018-08-25T14:48:52.839Z,24.52
2018-08-25T14:51:21.356Z,24.60
2018-08-25T14:53:49.848Z,24.54
2018-08-25T14:56:18.374Z,24.39
2018-08-25T14:58:46.824Z,24.27
2018-08-25T15:01:15.266Z,24.11
2018-08-25T15:03:43.791Z,23.95
2018-08-25T15:06:12.310Z,23.78
2018-08-25T15:08:41.087Z,23.75
2018-08-25T15:11:09.580Z,23.75
2018-08-25T15:13:38.220Z,23.82
2018-08-25T15:16:06.813Z,23.88
2018-08-25T15:18:35.486Z,24.04
2018-08-25T15:21:04.087Z,24.16
2018-08-25T15:23:32.633Z,24.18
2018-08-25T15:26:01.121Z,24.08
2018-08-25T15:28:29.717Z,23.88
2018-08-25T15:30:58.314Z,23.64
2018-08-25T15:33:26.896Z,23.42
2018-08-25T15:35:55.565Z,23.22
2018-08-25T15:38:24.235Z,23.08
2018-08-25T15:40:52.868Z,22.97
2018-08-25T15:43:21.420Z,22.94
2018-08-25T15:45:49.985Z,22.92
2018-08-25T15:48:18.602Z,23.01
2018-08-25T15:50:47.141Z,23.12
2018-08-25T15:53:15.880Z,23.24
2018-08-25T15:55:44.517Z,23.34
2018-08-25T15:58:13.105Z,23.49
2018-08-25T16:00:41.703Z,23.61
2018-08-25T16:03:10.231Z,23.68
2018-08-25T16:05:38.827Z,23.67
2018-08-25T16:08:07.414Z,23.64
2018-08-25T16:10:36.011Z,23.54
2018-08-25T16:13:04.594Z,23.38
2018-08-25T16:15:33.133Z,23.30
2018-08-25T16:18:01.947Z,23.33
2018-08-25T16:20:30.969Z,23.29
2018-08-25T16:22:59.476Z,23.21
2018-08-25T16:25:28.434Z,23.11
2018-08-25T16:27:57.154Z,22.99
2018-08-25T16:30:25.923Z,22.14
2018-08-25T16:32:54.543Z,22.87
2018-08-25T16:35:23.118Z,22.91
2018-08-25T16:37:51.739Z,22.89
2018-08-25T16:40:20.407Z,22.86
2018-08-25T16:42:48.931Z,22.81
2018-08-25T16:45:17.535Z,22.80
2018-08-25T16:47:46.060Z,22.80
2018-08-25T16:50:14.631Z,22.79
2018-08-25T16:52:43.643Z,22.84
2018-08-25T16:55:12.462Z,22.81
2018-08-25T16:57:41.165Z,22.73
2018-08-25T17:00:09.854Z,22.67
2018-08-25T17:02:38.508Z,22.58
2018-08-25T17:05:07.167Z,22.52
2018-08-25T17:07:35.705Z,22.44
2018-08-25T17:10:04.323Z,22.31
2018-08-25T17:12:33.039Z,22.27
2018-08-25T17:15:01.598Z,22.18
2018-08-25T17:17:30.937Z,21.33
2018-08-25T17:19:59.511Z,22.01
2018-08-25T17:22:28.225Z,21.94
2018-08-25T17:24:57.691Z,21.87
2018-08-25T17:30:05.989Z,21.65
2018-08-25T17:32:34.617Z,21.58
2018-08-25T17:35:03.601Z,21.47
2018-08-25T17:37:32.199Z,21.40
2018-08-25T17:40:01.288Z,21.30
2018-08-25T17:42:29.883Z,21.23
2018-08-25T17:44:58.390Z,21.18
2018-08-25T17:47:27.244Z,21.14
2018-08-25T17:49:55.967Z,21.10
2018-08-25T17:52:24.547Z,21.04
2018-08-25T17:54:53.198Z,21.03
2018-08-25T17:57:21.931Z,21.01
2018-08-25T17:59:50.511Z,21.00
2018-08-25T18:02:25.353Z,21.00
2018-08-25T18:04:54.136Z,21.02
2018-08-25T18:07:22.701Z,21.02
2018-08-25T18:09:53.437Z,21.02
2018-08-25T18:12:23.042Z,21.00
2018-08-25T18:14:53.080Z,21.01
2018-08-25T18:17:22.530Z,21.01
2018-08-25T18:19:51.539Z,20.98
2018-08-25T18:22:20.143Z,20.95
2018-08-25T18:24:48.697Z,20.89
2018-08-25T18:27:17.538Z,20.88
2018-08-25T18:29:46.400Z,20.82
2018-08-25T18:32:15.070Z,20.78
2018-08-25T18:34:43.761Z,20.78
2018-08-25T18:37:12.373Z,20.76
2018-08-25T18:39:41.108Z,20.74
2018-08-25T18:42:09.735Z,20.72
2018-08-25T18:44:38.361Z,20.63
2018-08-25T18:47:06.975Z,20.62
2018-08-25T18:49:35.836Z,20.58
2018-08-25T18:52:04.447Z,20.52
2018-08-25T18:54:33.013Z,20.51
2018-08-25T18:57:01.549Z,20.48
2018-08-25T18:59:30.252Z,20.42
2018-08-25T19:01:59.042Z,20.38
2018-08-25T19:04:27.585Z,20.34
2018-08-25T19:06:56.150Z,20.27
2018-08-25T19:12:05.271Z,20.16
2018-08-25T19:14:34.437Z,20.13
2018-08-25T19:17:03.673Z,20.12
2018-08-25T19:19:32.834Z,20.11
2018-08-25T19:22:01.743Z,20.07
2018-08-25T19:24:30.461Z,20.00
2018-08-25T19:27:02.527Z,19.93
2018-08-25T19:29:31.437Z,19.82
2018-08-25T19:32:00.628Z,19.73
2018-08-25T19:34:31.146Z,19.62
2018-08-25T19:37:00.435Z,19.50
2018-08-25T19:39:29.672Z,19.40
2018-08-25T19:41:59.861Z,19.31
2018-08-25T19:44:28.474Z,19.23
2018-08-25T19:46:57.258Z,19.15
2018-08-25T19:49:25.928Z,19.06
2018-08-25T19:51:54.484Z,19.00
2018-08-25T19:54:23.041Z,18.95
2018-08-25T19:56:52.162Z,18.87
2018-08-25T19:59:20.711Z,18.81
2018-08-25T20:01:49.891Z,18.75
2018-08-25T20:04:18.564Z,18.70
2018-08-25T20:06:47.193Z,18.65
2018-08-25T20:09:15.766Z,18.57
2018-08-25T20:11:44.956Z,18.38
2018-08-25T20:14:13.588Z,18.48
2018-08-25T20:16:42.256Z,18.43
2018-08-25T20:19:10.793Z,18.38
2018-08-25T20:21:40.227Z,18.34
2018-08-25T20:24:08.958Z,18.32
2018-08-25T20:26:37.649Z,18.29
2018-08-25T20:29:06.240Z,18.25
2018-08-25T20:31:34.959Z,18.21
2018-08-25T20:34:03.741Z,18.17
2018-08-25T20:36:32.467Z,18.14
2018-08-25T20:39:01.110Z,18.12
2018-08-25T20:41:29.817Z,18.10
2018-08-25T20:43:58.492Z,18.08
2018-08-25T20:46:27.106Z,18.04
2018-08-25T20:48:55.716Z,17.99
2018-08-25T20:51:24.489Z,17.95
2018-08-25T20:53:53.143Z,17.89
2018-08-25T20:56:21.831Z,17.84
2018-08-25T20:58:50.490Z,17.79
2018-08-25T21:01:19.101Z,17.74
2018-08-25T21:03:47.697Z,17.70
2018-08-25T21:06:16.354Z,17.68
2018-08-25T21:08:44.988Z,17.63
2018-08-25T21:11:13.907Z,17.59
2018-08-25T21:13:42.489Z,17.56
2018-08-25T21:16:11.316Z,17.55
2018-08-25T21:18:40.287Z,17.52
2018-08-25T21:21:08.881Z,17.48
2018-08-25T21:23:37.658Z,17.44
2018-08-25T21:26:06.624Z,17.41
2018-08-25T21:28:35.238Z,17.34
2018-08-25T21:31:03.970Z,17.32
2018-08-25T21:33:32.646Z,17.27
2018-08-25T21:36:01.323Z,17.21
2018-08-25T21:38:30.114Z,17.15
2018-08-25T21:40:58.715Z,17.12
2018-08-25T21:43:27.615Z,17.06
2018-08-25T21:45:56.209Z,17.01
2018-08-25T21:48:24.833Z,16.98
2018-08-25T21:50:53.510Z,16.93
2018-08-25T21:53:22.187Z,16.88
2018-08-25T21:55:50.793Z,16.87
2018-08-25T21:58:19.387Z,16.85
2018-08-25T22:00:53.101Z,16.84
2018-08-25T22:03:21.639Z,16.31
2018-08-25T22:05:51.171Z,16.78
2018-08-25T22:08:19.742Z,16.75
2018-08-25T22:10:48.293Z,16.74
2018-08-25T22:13:16.813Z,16.72
2018-08-25T22:15:45.462Z,16.70
2018-08-25T22:18:14.077Z,16.68
2018-08-25T22:20:42.687Z,16.68
2018-08-25T22:23:11.203Z,16.66
2018-08-25T22:25:39.897Z,16.65
2018-08-25T22:28:08.436Z,16.63
2018-08-25T22:30:37.021Z,16.63
2018-08-25T22:33:05.535Z,16.64
2018-08-25T22:35:34.414Z,16.64
2018-08-25T22:38:03.020Z,16.65
2018-08-25T22:40:31.737Z,16.66
2018-08-25T22:43:00.282Z,16.68
2018-08-25T22:45:28.829Z,16.67
2018-08-25T22:47:57.406Z,16.51
2018-08-25T22:50:25.968Z,16.66
2018-08-25T22:52:54.404Z,16.66
2018-08-25T22:55:25.470Z,16.67
2018-08-25T22:57:54.128Z,16.67
2018-08-25T23:00:22.634Z,16.64
2018-08-25T23:02:51.174Z,16.63
2018-08-25T23:05:19.718Z,16.61
2018-08-25T23:07:48.238Z,16.61
2018-08-25T23:10:16.750Z,16.58
2018-08-25T23:12:45.250Z,16.57
2018-08-25T23:15:13.840Z,16.55
2018-08-25T23:17:42.315Z,16.55
2018-08-25T23:20:10.939Z,16.54
2018-08-25T23:22:39.515Z,16.50
2018-08-25T23:25:08.061Z,16.50
2018-08-25T23:27:36.557Z,16.49
2018-08-25T23:30:05.122Z,16.47
2018-08-25T23:32:33.738Z,16.45
2018-08-25T23:35:02.321Z,16.41
2018-08-25T23:37:30.899Z,16.37
2018-08-25T23:39:59.453Z,16.35
2018-08-25T23:42:27.982Z,16.35
2018-08-25T23:44:56.548Z,16.29
2018-08-25T23:47:25.089Z,16.13
2018-08-25T23:49:53.608Z,16.27
2018-08-25T23:52:22.129Z,16.26
2018-08-25T23:54:50.655Z,16.24
2018-08-25T23:57:19.163Z,16.21
2018-08-25T23:59:47.730Z,16.20
